Time;durP1;ratioP1;P1;durP2;ratioP2;P2;SDS_P1;SDS_P2;PMS_P1;PMS_P2;Temp;Humidity;BMP_temperature;BMP_pressure;BME280_temperature;BME280_humidity;BME280_pressure;Samples;Min_cycle;Max_cycle;Signal;HPM_P1;HPM_P2
2021/01/03 00:02:10;;;;;;;67.43;32.20;;;;;;;-2.42;94.27;102195.31;1666439;84;20994;-36
2021/01/03 00:04:42;;;;;;;79.87;31.50;;;;;;;-2.42;94.27;102195.31;1691810;84;21368;-34
2021/01/03 00:07:11;;;;;;;66.12;33.28;;;;;;;-2.43;94.29;102193.97;1691857;84;21533;-35
2021/01/03 00:09:39;;;;;;;84.40;33.65;;;;;;;-2.42;94.34;102191.92;1691830;84;20935;-36
2021/01/03 00:14:49;;;;;;;70.97;32.30;;;;;;;-2.41;94.27;102189.46;1776868;79;22725;-34
2021/01/03 00:17:17;;;;;;;51.20;29.02;;;;;;;-2.50;94.19;102192.33;1749856;82;20967;-35
2021/01/03 00:19:46;;;;;;;65.57;33.95;;;;;;;-2.55;94.16;102201.28;1749773;81;22566;-34
2021/01/03 00:22:14;;;;;;;65.78;33.70;;;;;;;-2.57;94.16;102199.44;1749724;82;21089;-35
2021/01/03 00:24:42;;;;;;;66.62;33.90;;;;;;;-2.57;94.21;102204.52;1749718;82;20987;-34
2021/01/03 00:27:11;;;;;;;69.55;35.98;;;;;;;-2.56;94.27;102205.86;1749811;82;21014;-36
2021/01/03 00:29:39;;;;;;;73.07;36.42;;;;;;;-2.54;94.39;102202.17;1749743;82;21046;-34
2021/01/03 00:32:07;;;;;;;74.75;35.08;;;;;;;-2.48;94.55;102210.16;1749816;81;21196;-35
2021/01/03 00:34:35;;;;;;;73.02;33.45;;;;;;;-2.37;94.68;102201.58;1749692;82;20975;-35
2021/01/03 00:37:03;;;;;;;61.20;32.93;;;;;;;-2.26;94.77;102203.90;1749750;82;21280;-36
2021/01/03 00:39:32;;;;;;;76.30;34.25;;;;;;;-2.17;94.85;102201.55;1749815;81;20943;-35
2021/01/03 00:42:00;;;;;;;79.62;35.23;;;;;;;-2.07;94.90;102215.68;1749792;81;21022;-36
2021/01/03 00:44:30;;;;;;;66.35;33.23;;;;;;;-1.96;94.92;102219.26;1749077;82;21389;-34
2021/01/03 00:46:58;;;;;;;59.35;32.83;;;;;;;-1.84;94.96;102214.94;1749655;81;21003;-34
2021/01/03 00:49:27;;;;;;;58.90;30.45;;;;;;;-1.74;94.98;102214.70;1749758;82;20928;-34
2021/01/03 00:51:55;;;;;;;63.45;32.33;;;;;;;-1.63;94.95;102218.30;1749780;81;20955;-36
2021/01/03 00:54:23;;;;;;;61.25;32.48;;;;;;;-1.57;94.95;102217.77;1749618;82;20980;-36
2021/01/03 00:56:51;;;;;;;70.37;35.80;;;;;;;-1.48;94.94;102215.79;1749734;82;21366;-35
2021/01/03 00:59:19;;;;;;;67.20;36.40;;;;;;;-1.41;94.89;102213.20;1749734;82;20935;-35
2021/01/03 01:01:48;;;;;;;55.95;29.35;;;;;;;-1.36;94.82;102220.72;1749626;82;20940;-34
2021/01/03 01:04:16;;;;;;;58.92;32.08;;;;;;;-1.33;94.83;102212.86;1749769;81;20998;-34
2021/01/03 01:06:44;;;;;;;66.30;35.50;;;;;;;-1.28;94.83;102206.79;1749721;81;20967;-35
2021/01/03 01:09:13;;;;;;;68.55;33.33;;;;;;;-1.22;94.87;102209.68;1749673;81;22333;-35
2021/01/03 01:11:41;;;;;;;69.05;34.60;;;;;;;-1.17;94.84;102205.73;1749725;82;21530;-35
2021/01/03 01:14:10;;;;;;;67.92;36.58;;;;;;;-1.11;94.84;102206.90;1741510;82;20913;-35
2021/01/03 01:16:38;;;;;;;71.72;35.15;;;;;;;-1.10;94.84;102203.16;1736443;82;20912;-35
2021/01/03 01:19:06;;;;;;;73.45;37.95;;;;;;;-1.06;94.85;102204.22;1736501;82;20913;-34
2021/01/03 01:21:34;;;;;;;70.28;36.40;;;;;;;-1.04;94.86;102201.38;1736496;82;21209;-35
2021/01/03 01:24:02;;;;;;;57.50;31.95;;;;;;;-1.01;94.85;102200.27;1736366;82;20976;-34
2021/01/03 01:26:31;;;;;;;54.60;29.85;;;;;;;-0.99;94.83;102201.23;1735901;82;20971;-35
2021/01/03 01:28:59;;;;;;;73.05;37.00;;;;;;;-0.98;94.86;102206.80;1735990;82;20980;-34
2021/01/03 01:31:28;;;;;;;64.07;34.83;;;;;;;-0.94;94.92;102205.31;1735959;82;21047;-34
2021/01/03 01:33:57;;;;;;;68.72;35.92;;;;;;;-0.90;94.88;102203.02;1735910;82;22566;-36
2021/01/03 01:36:26;;;;;;;67.85;34.10;;;;;;;-0.86;94.85;102209.16;1735921;81;21062;-37
2021/01/03 01:38:54;;;;;;;59.35;29.87;;;;;;;-0.84;94.86;102207.58;1735954;82;20980;-34
2021/01/03 01:41:22;;;;;;;62.15;33.15;;;;;;;-0.80;94.83;102203.55;1735922;82;21003;-36
2021/01/03 01:43:51;;;;;;;66.97;32.90;;;;;;;-0.77;94.88;102205.85;1736021;82;21532;-35
2021/01/03 01:46:36;;;;;;;60.17;31.33;;;;;;;-0.74;94.86;102207.33;1735973;82;21217;-36
2021/01/03 01:49:10;;;;;;;43.87;20.32;;;;;;;-0.72;94.88;102201.03;1736063;81;20983;-35
2021/01/03 01:51:41;;;;;;;51.35;28.25;;;;;;;-0.72;94.92;102207.39;1735890;82;21411;-36
2021/01/03 01:54:20;;;;;;;46.83;26.55;;;;;;;-0.68;94.88;102200.82;1736029;82;21424;-36
2021/01/03 01:57:09;;;;;;;44.95;24.77;;;;;;;-0.65;94.86;102201.84;1735984;82;21513;-37
2021/01/03 02:00:09;;;;;;;38.02;22.35;;;;;;;-0.62;94.89;102200.78;1735920;82;21206;-36
2021/01/03 02:03:05;;;;;;;42.95;25.12;;;;;;;-0.63;94.91;102198.13;1735922;82;21098;-37
2021/01/03 02:05:51;;;;;;;35.75;22.32;;;;;;;-0.60;94.91;102200.46;1736004;82;21036;-35
2021/01/03 02:08:46;;;;;;;22.05;13.08;;;;;;;-0.57;94.93;102201.42;1736066;82;20992;-35
2021/01/03 02:11:19;;;;;;;46.65;20.23;;;;;;;-0.55;94.98;102198.56;1735569;82;20995;-34
2021/01/03 02:13:50;;;;;;;36.48;18.65;;;;;;;-0.54;95.01;102196.50;1738448;81;21223;-36
2021/01/03 02:16:22;;;;;;;33.10;19.32;;;;;;;-0.52;95.00;102197.45;1744064;82;21003;-38
2021/01/03 02:18:51;;;;;;;32.48;19.55;;;;;;;-0.50;95.04;102196.77;1744079;82;21010;-36
2021/01/03 02:21:43;;;;;;;30.68;15.98;;;;;;;-0.45;95.05;102202.08;1744133;82;21514;-35
2021/01/03 02:24:33;;;;;;;28.10;17.37;;;;;;;-0.43;95.06;102199.22;1744111;82;20948;-37
2021/01/03 02:27:22;;;;;;;27.67;15.93;;;;;;;-0.38;95.09;102204.19;1744004;82;21205;-34
2021/01/03 02:29:52;;;;;;;26.02;17.00;;;;;;;-0.34;95.15;102204.83;1725756;82;21200;-36
2021/01/03 02:32:20;;;;;;;28.40;15.50;;;;;;;-0.29;95.20;102207.61;1743987;82;20971;-35
2021/01/03 02:34:49;;;;;;;25.25;16.32;;;;;;;-0.26;95.20;102203.95;1691866;82;21169;-37
2021/01/03 02:37:34;;;;;;;29.00;18.27;;;;;;;-0.25;95.26;102207.39;1744115;82;21031;-36
2021/01/03 02:40:20;;;;;;;27.10;17.23;;;;;;;-0.21;95.28;102205.10;1744124;82;22817;-36
2021/01/03 02:42:48;;;;;;;27.40;16.00;;;;;;;-0.18;95.26;102206.92;1743971;82;20988;-35
2021/01/03 02:45:29;;;;;;;26.07;16.35;;;;;;;-0.14;95.27;102215.19;1744036;82;21034;-37
2021/01/03 02:48:02;;;;;;;30.60;18.98;;;;;;;-0.10;95.30;102215.86;1744044;82;20924;-35
2021/01/03 02:50:38;;;;;;;30.60;18.10;;;;;;;-0.02;95.36;102207.34;1857972;76;22341;-37
2021/01/03 02:53:08;;;;;;;30.57;18.15;;;;;;;-0.02;95.37;102213.32;1830040;78;20997;-36
2021/01/03 02:55:38;;;;;;;33.80;20.10;;;;;;;0.03;95.40;102213.58;1830031;78;21188;-37
2021/01/03 02:58:07;;;;;;;30.77;19.05;;;;;;;0.07;95.37;102210.39;1829917;78;20921;-37
2021/01/03 03:00:37;;;;;;;33.48;19.87;;;;;;;0.12;95.39;102207.69;1829962;78;21016;-33
2021/01/03 03:03:06;;;;;;;29.18;17.57;;;;;;;0.17;95.39;102201.56;1830015;78;20932;-37
2021/01/03 03:05:37;;;;;;;34.10;19.25;;;;;;;0.22;95.39;102206.50;1830121;78;20894;-34
2021/01/03 03:08:05;;;;;;;28.77;18.45;;;;;;;0.24;95.43;102211.27;1824930;78;21255;-37
2021/01/03 03:10:34;;;;;;;36.60;20.30;;;;;;;0.30;95.42;102211.11;1829842;78;21472;-35
2021/01/03 03:13:02;;;;;;;30.45;18.57;;;;;;;0.33;95.44;102207.44;1829953;78;20993;-35
2021/01/03 03:15:34;;;;;;;29.25;18.45;;;;;;;0.36;95.45;102209.76;1830053;78;20981;-36
2021/01/03 03:18:03;;;;;;;32.60;19.12;;;;;;;0.39;95.45;102209.91;1830012;78;20977;-36
2021/01/03 03:20:31;;;;;;;28.90;16.90;;;;;;;0.43;95.44;102208.41;1829979;78;21403;-37
2021/01/03 03:22:59;;;;;;;31.80;19.27;;;;;;;0.45;95.40;102201.72;1829907;78;21013;-36
2021/01/03 03:25:28;;;;;;;32.63;17.80;;;;;;;0.49;95.42;102205.28;1829967;78;20902;-34
2021/01/03 03:27:56;;;;;;;33.45;17.85;;;;;;;0.52;95.41;102208.01;1829970;78;20894;-38
2021/01/03 03:30:24;;;;;;;29.02;17.98;;;;;;;0.52;95.42;102208.87;1829909;78;21005;-36
2021/01/03 03:32:53;;;;;;;32.98;17.70;;;;;;;0.56;95.41;102206.09;1830046;78;21363;-36
2021/01/03 03:35:29;;;;;;;32.28;18.52;;;;;;;0.59;95.37;102199.87;1829897;78;20985;-35
2021/01/03 03:37:57;;;;;;;27.13;16.65;;;;;;;0.59;95.38;102200.25;1830057;78;25074;-36
2021/01/03 03:40:25;;;;;;;32.30;18.95;;;;;;;0.60;95.37;102199.06;1829954;78;20897;-35
2021/01/03 03:42:54;;;;;;;30.20;18.80;;;;;;;0.60;95.40;102205.83;1829960;78;20953;-35
2021/01/03 03:45:22;;;;;;;23.95;15.30;;;;;;;0.62;95.38;102209.33;1829988;78;21366;-35
2021/01/03 03:47:51;;;;;;;23.50;14.07;;;;;;;0.62;95.38;102209.33;1829862;77;21008;-36
2021/01/03 03:50:23;;;;;;;22.48;15.18;;;;;;;0.62;95.36;102212.77;1821408;77;20961;-35
2021/01/03 03:52:51;;;;;;;26.75;17.55;;;;;;;0.63;95.35;102212.34;1818638;79;21033;-34
2021/01/03 03:55:19;;;;;;;24.72;16.15;;;;;;;0.63;95.36;102217.06;1818707;79;20985;-35
2021/01/03 03:57:48;;;;;;;21.75;14.40;;;;;;;0.63;95.35;102220.89;1818645;79;21198;-37
2021/01/03 04:00:22;;;;;;;23.85;14.95;;;;;;;0.63;95.32;102214.52;1818471;79;21500;-34
2021/01/03 04:02:51;;;;;;;26.07;16.42;;;;;;;0.64;95.32;102213.72;1818198;79;20970;-35
2021/01/03 04:05:24;;;;;;;19.60;13.38;;;;;;;0.63;95.31;102218.34;1818086;79;21539;-36
2021/01/03 04:07:53;;;;;;;24.15;17.57;;;;;;;0.64;95.33;102228.15;1818064;79;21143;-36
2021/01/03 04:10:21;;;;;;;25.50;17.25;;;;;;;0.63;95.34;102240.39;1818091;79;21362;-36
2021/01/03 04:12:49;;;;;;;26.00;17.87;;;;;;;0.62;95.32;102232.27;1818015;78;20993;-35
2021/01/03 04:15:19;;;;;;;27.22;17.90;;;;;;;0.64;95.30;102231.98;1817989;79;20958;-35
2021/01/03 04:17:49;;;;;;;25.80;16.93;;;;;;;0.61;95.26;102227.97;1818015;79;20992;-38
2021/01/03 04:20:18;;;;;;;30.43;20.17;;;;;;;0.60;95.25;102231.31;1818154;79;21024;-35
2021/01/03 04:22:46;;;;;;;29.77;20.12;;;;;;;0.60;95.25;102228.77;1817933;79;21321;-36
2021/01/03 04:25:15;;;;;;;31.60;20.32;;;;;;;0.59;95.27;102233.00;1818076;79;21408;-35
2021/01/03 04:27:44;;;;;;;32.10;20.25;;;;;;;0.61;95.24;102230.52;1818119;79;20974;-37
2021/01/03 04:30:13;;;;;;;29.02;19.07;;;;;;;0.60;95.19;102218.56;1817895;79;20926;-36
2021/01/03 04:32:42;;;;;;;29.18;20.52;;;;;;;0.57;95.17;102230.36;1818054;79;20997;-37
2021/01/03 04:35:12;;;;;;;32.73;22.45;;;;;;;0.56;95.15;102220.97;1818048;79;20992;-36
2021/01/03 04:37:40;;;;;;;35.65;22.37;;;;;;;0.54;95.18;102223.84;1817937;79;21001;-35
2021/01/03 04:40:22;;;;;;;30.15;20.40;;;;;;;0.55;95.21;102220.49;1818006;79;21024;-35
2021/01/03 04:42:53;;;;;;;29.85;19.95;;;;;;;0.55;95.17;102215.81;1818019;79;21005;-35
2021/01/03 04:45:35;;;;;;;32.63;20.80;;;;;;;0.54;95.16;102219.16;1818005;79;20998;-35
2021/01/03 04:48:10;;;;;;;31.00;20.05;;;;;;;0.52;95.15;102220.34;1817897;78;21191;-36
2021/01/03 04:50:55;;;;;;;33.98;18.10;;;;;;;0.46;95.12;102228.95;1830977;78;21436;-37
2021/01/03 04:53:58;;;;;;;25.80;19.43;;;;;;;0.42;95.10;102230.87;1836042;78;20941;-36
2021/01/03 04:56:43;;;;;;;30.68;20.23;;;;;;;0.40;95.08;102229.50;1835742;78;21635;-36
2021/01/03 04:59:38;;;;;;;34.65;21.55;;;;;;;0.38;95.12;102237.84;1835701;78;20977;-37
2021/01/03 05:02:41;;;;;;;26.25;16.02;;;;;;;0.34;95.12;102246.13;1835933;78;21256;-34
2021/01/03 05:05:33;;;;;;;29.23;18.70;;;;;;;0.31;95.10;102251.07;1835652;78;21004;-36
2021/01/03 05:08:33;;;;;;;27.45;19.80;;;;;;;0.29;95.08;102251.01;1835693;78;21004;-36
2021/01/03 05:11:11;;;;;;;32.30;21.95;;;;;;;0.26;95.09;102254.67;1835605;78;21012;-35
2021/01/03 05:14:04;;;;;;;29.07;20.50;;;;;;;0.23;95.11;102251.55;1835788;78;20898;-35
2021/01/03 05:16:32;;;;;;;27.32;17.85;;;;;;;0.23;95.09;102255.75;1835691;78;21255;-36
2021/01/03 05:19:00;;;;;;;28.55;18.20;;;;;;;0.19;95.04;102263.66;1835670;78;21036;-36
2021/01/03 05:21:47;;;;;;;26.90;18.30;;;;;;;0.14;95.02;102258.72;1835660;78;20909;-36
2021/01/03 05:24:15;;;;;;;25.52;18.12;;;;;;;0.11;95.03;102254.70;1835685;78;20976;-36
2021/01/03 05:26:43;;;;;;;30.23;18.55;;;;;;;0.08;95.00;102268.55;1835700;78;20942;-38
2021/01/03 05:29:21;;;;;;;27.02;17.35;;;;;;;0.04;94.96;102279.38;1835665;78;21196;-37
2021/01/03 05:32:01;;;;;;;23.57;15.95;;;;;;;-0.01;94.94;102271.47;1835643;78;21071;-36
2021/01/03 05:34:40;;;;;;;29.90;19.35;;;;;;;-0.04;94.94;102270.04;1835707;78;21021;-36
2021/01/03 05:37:19;;;;;;;28.15;18.52;;;;;;;-0.02;94.96;102265.52;1853628;77;22790;-36
2021/01/03 05:39:48;;;;;;;28.02;17.95;;;;;;;-0.07;95.00;102268.60;1825663;78;20975;-35
2021/01/03 05:42:24;;;;;;;24.70;16.77;;;;;;;-0.08;95.00;102267.74;1789255;80;21192;-36
2021/01/03 05:45:24;;;;;;;23.83;16.90;;;;;;;-0.09;95.04;102273.63;1789308;80;20994;-36
2021/01/03 05:48:00;;;;;;;25.70;17.85;;;;;;;-0.07;95.05;102272.42;1789261;80;21044;-35
2021/01/03 05:50:35;;;;;;;26.50;17.62;;;;;;;-0.08;95.06;102274.11;1789341;80;20964;-36
2021/01/03 05:53:26;;;;;;;28.73;16.75;;;;;;;-0.09;95.09;102269.81;1789361;80;20921;-35
2021/01/03 05:55:58;;;;;;;25.45;17.00;;;;;;;-0.08;95.08;102275.38;1789150;80;21428;-36
2021/01/03 05:58:43;;;;;;;23.22;16.00;;;;;;;-0.09;95.10;102278.72;1789267;80;21634;-36
2021/01/03 06:01:30;;;;;;;23.02;16.65;;;;;;;-0.09;95.12;102278.72;1789234;80;20932;-36
2021/01/03 06:04:10;;;;;;;25.50;16.05;;;;;;;-0.10;95.11;102279.90;1789199;80;21039;-36
2021/01/03 06:06:52;;;;;;;24.85;16.40;;;;;;;-0.11;95.12;102281.58;1789325;80;21364;-36
2021/01/03 06:09:23;;;;;;;24.25;15.00;;;;;;;-0.10;95.14;102279.90;1789205;80;21207;-37
2021/01/03 06:12:00;;;;;;;24.57;16.52;;;;;;;-0.10;95.10;102283.72;1789143;80;21019;-35
2021/01/03 06:14:29;;;;;;;27.95;16.97;;;;;;;-0.10;95.09;102287.16;1789337;80;21486;-34
2021/01/03 06:17:07;;;;;;;23.35;15.48;;;;;;;-0.12;95.09;102287.47;1789096;80;21000;-36
2021/01/03 06:19:38;;;;;;;25.32;15.08;;;;;;;-0.11;95.07;102289.22;1789347;80;21134;-35
2021/01/03 06:22:39;;;;;;;26.77;15.55;;;;;;;-0.10;95.11;102292.25;1789271;80;21378;-35
2021/01/03 06:25:32;;;;;;;22.25;14.20;;;;;;;-0.07;95.05;102292.41;1789187;80;20901;-35
2021/01/03 06:28:16;;;;;;;24.18;15.23;;;;;;;-0.05;95.07;102294.64;1847769;76;22699;-36
2021/01/03 06:31:07;;;;;;;22.48;15.13;;;;;;;-0.11;95.03;102300.68;1818139;78;20899;-35
2021/01/03 06:34:31;;;;;;;27.07;15.50;;;;;;;-0.12;95.01;102296.38;1818212;79;22667;-34
2021/01/03 06:37:10;;;;;;;20.52;15.23;;;;;;;-0.10;95.02;102303.70;1818102;79;21021;-37
2021/01/03 06:39:56;;;;;;;22.87;15.80;;;;;;;-0.11;94.98;102305.77;1818095;78;20998;-37
2021/01/03 06:42:53;;;;;;;22.85;15.23;;;;;;;-0.12;95.01;102310.38;1818028;79;20978;-37
2021/01/03 06:45:29;;;;;;;22.15;14.50;;;;;;;-0.11;95.03;102308.70;1816150;79;21014;-36
2021/01/03 06:48:23;;;;;;;23.87;15.32;;;;;;;-0.10;95.00;102312.62;1818088;78;21206;-37
2021/01/03 06:51:19;;;;;;;21.07;14.45;;;;;;;-0.10;94.97;102310.07;1818047;79;20919;-36
2021/01/03 06:54:10;;;;;;;20.05;14.47;;;;;;;-0.11;94.99;102307.05;1817924;79;21076;-36
2021/01/03 06:57:00;;;;;;;19.27;14.07;;;;;;;-0.10;94.97;102306.25;1801358;79;21021;-36
2021/01/03 06:59:38;;;;;;;19.23;13.10;;;;;;;-0.10;94.90;102307.91;1818133;79;20914;-35
2021/01/03 07:02:07;;;;;;;19.57;13.78;;;;;;;-0.11;94.89;102315.95;1818078;78;21321;-37
2021/01/03 07:04:38;;;;;;;22.27;14.33;;;;;;;-0.13;94.80;102317.52;1818105;78;21041;-36
2021/01/03 07:07:25;;;;;;;21.45;14.73;;;;;;;-0.17;94.77;102319.41;1818201;79;20967;-35
2021/01/03 07:09:59;;;;;;;21.68;14.45;;;;;;;-0.15;94.75;102320.38;1818039;79;20986;-36
2021/01/03 07:12:42;;;;;;;22.95;13.83;;;;;;;-0.16;94.67;102323.33;1818140;78;20860;-37
2021/01/03 07:15:24;;;;;;;25.85;15.88;;;;;;;-0.17;94.68;102321.95;1818000;79;21369;-35
2021/01/03 07:18:00;;;;;;;29.72;16.42;;;;;;;-0.15;94.64;102318.72;1817988;79;20935;-39
2021/01/03 07:20:52;;;;;;;26.00;15.70;;;;;;;-0.15;94.62;102319.99;1818067;79;20915;-36
2021/01/03 07:23:44;;;;;;;24.07;16.37;;;;;;;-0.11;94.63;102320.16;1818093;79;20967;-36
2021/01/03 07:26:32;;;;;;;31.25;17.82;;;;;;;-0.11;94.59;102326.14;1818418;78;21117;-35
2021/01/03 07:29:14;;;;;;;39.25;19.35;;;;;;;-0.12;94.55;102333.30;1818053;79;21371;-39
2021/01/03 07:32:04;;;;;;;28.10;18.30;;;;;;;-0.15;94.49;102328.91;1789875;79;21529;-37
2021/01/03 07:34:34;;;;;;;32.13;19.00;;;;;;;-0.16;94.40;102330.08;1818039;78;20990;-37
2021/01/03 07:37:19;;;;;;;34.45;19.73;;;;;;;-0.19;94.35;102329.91;1818068;79;21006;-35
2021/01/03 07:40:13;;;;;;;34.77;19.10;;;;;;;-0.20;94.31;102335.41;1783144;79;21485;-37
2021/01/03 07:42:50;;;;;;;33.13;20.23;;;;;;;-0.20;94.29;102339.23;1817382;79;21374;-37
2021/01/03 07:45:23;;;;;;;44.95;22.22;;;;;;;-0.18;94.36;102333.83;1817408;79;20939;-36
2021/01/03 07:47:52;;;;;;;40.05;22.40;;;;;;;-0.16;94.36;102338.61;1813834;79;21049;-35
2021/01/03 07:50:33;;;;;;;40.10;21.60;;;;;;;-0.09;94.31;102338.56;1817459;79;21018;-36
2021/01/03 07:53:34;;;;;;;39.50;21.57;;;;;;;-0.05;94.25;102335.77;1817519;78;21505;-37
2021/01/03 07:56:26;;;;;;;46.75;22.67;;;;;;;-0.04;94.23;102333.70;1817412;79;21447;-37
2021/01/03 07:58:58;;;;;;;40.52;22.02;;;;;;;-0.04;94.14;102342.23;1782024;79;20975;-35
2021/01/03 08:01:31;;;;;;;34.13;20.88;;;;;;;0.02;94.10;102339.53;1817470;78;20900;-35
2021/01/03 08:04:21;;;;;;;41.45;23.02;;;;;;;0.03;94.00;102345.11;1817081;78;20982;-35
2021/01/03 08:06:50;;;;;;;40.00;22.00;;;;;;;0.02;93.93;102347.17;1817498;79;20990;-36
2021/01/03 08:09:26;;;;;;;43.08;23.67;;;;;;;0.06;93.92;102351.26;1817476;79;21155;-38
2021/01/03 08:11:56;;;;;;;;;;;;;;;0.06;93.79;102349.09;1820075;78;20979;-38
2021/01/03 08:14:26;;;;;;;55.75;26.23;;;;;;;0.02;93.52;102357.36;1816963;79;20121;-37
2021/01/03 08:17:01;;;;;;;63.55;26.55;;;;;;;-0.05;93.46;102351.94;1817391;79;20864;-37
2021/01/03 08:19:30;;;;;;;55.92;24.92;;;;;;;-0.05;93.59;102354.48;1817571;78;20986;-36
2021/01/03 08:22:00;;;;;;;45.03;25.12;;;;;;;-0.04;93.67;102353.69;1817484;79;21399;-38
2021/01/03 08:24:30;;;;;;;59.60;26.30;;;;;;;-0.03;93.62;102354.55;1817425;79;20995;-35
2021/01/03 08:27:01;;;;;;;57.58;25.08;;;;;;;0.01;93.58;102358.16;1817626;78;21024;-36
2021/01/03 08:29:40;;;;;;;60.67;25.97;;;;;;;0.03;93.53;102356.57;1817523;79;21496;-35
2021/01/03 08:32:24;;;;;;;70.80;28.35;;;;;;;0.02;93.43;102359.53;1815253;79;20919;-35
2021/01/03 08:35:06;;;;;;;77.87;26.33;;;;;;;-0.02;93.29;102361.40;1817531;79;21186;-36
2021/01/03 08:37:46;;;;;;;79.10;28.52;;;;;;;-0.03;93.18;102365.63;1789689;79;20907;-37
2021/01/03 08:40:26;;;;;;;68.20;27.82;;;;;;;-0.04;93.18;102353.69;1817489;79;20935;-37
2021/01/03 08:43:23;;;;;;;56.25;26.77;;;;;;;-0.02;93.22;102353.76;1817360;79;20958;-37
2021/01/03 08:45:53;;;;;;;49.77;26.17;;;;;;;0.02;93.23;102357.36;1817449;78;20959;-33
2021/01/03 08:48:24;;;;;;;44.38;25.70;;;;;;;0.03;93.09;102355.30;1817408;79;21197;-35
2021/01/03 08:51:11;;;;;;;44.05;23.83;;;;;;;0.02;92.99;102349.72;1817280;79;20958;-34
2021/01/03 08:53:40;;;;;;;45.17;25.55;;;;;;;0.01;92.93;102354.34;1802156;79;21133;-36
2021/01/03 08:56:22;;;;;;;44.67;24.50;;;;;;;-0.01;92.90;102352.97;1817519;78;20923;-36
2021/01/03 08:58:50;;;;;;;45.38;24.65;;;;;;;-0.01;92.92;102346.22;1817208;78;21021;-36
2021/01/03 09:01:31;;;;;;;51.42;24.98;;;;;;;-0.01;92.84;102347.48;1817374;78;21197;-37
2021/01/03 09:04:07;;;;;;;40.80;23.47;;;;;;;0.02;92.91;102348.07;1817443;79;20935;-35
2021/01/03 09:06:36;;;;;;;41.88;23.98;;;;;;;0.08;92.95;102343.69;1805210;79;20872;-36
2021/01/03 09:09:16;;;;;;;46.28;23.87;;;;;;;0.10;92.85;102340.44;1817400;79;20948;-35
2021/01/03 09:11:55;;;;;;;41.48;22.85;;;;;;;0.12;92.83;102346.88;1817402;78;20981;-36
2021/01/03 09:14:29;;;;;;;45.95;23.65;;;;;;;0.19;92.81;102345.55;1812989;79;21374;-36
2021/01/03 09:17:05;;;;;;;36.38;22.15;;;;;;;0.22;92.79;102352.08;1817694;78;21561;-37
2021/01/03 09:20:15;;;;;;;33.33;19.85;;;;;;;0.27;92.77;102340.09;1817302;79;21054;-34
2021/01/03 09:22:49;;;;;;;34.85;19.87;;;;;;;0.32;92.63;102336.91;1817308;77;20923;-35
2021/01/03 09:25:24;;;;;;;28.05;18.37;;;;;;;0.33;92.41;102334.45;1817423;78;20999;-37
2021/01/03 09:27:55;;;;;;;27.75;19.07;;;;;;;0.32;92.27;102325.44;1823152;78;22607;-35
2021/01/03 09:30:31;;;;;;;37.88;19.65;;;;;;;0.34;92.34;102322.19;1832287;78;20914;-36
2021/01/03 09:33:24;;;;;;;25.92;18.10;;;;;;;0.38;92.17;102311.74;1832572;78;21108;-35
2021/01/03 09:36:47;;;;;;;26.77;17.27;;;;;;;0.40;91.90;102314.00;1807187;78;21009;-35
2021/01/03 09:39:37;;;;;;;27.15;18.23;;;;;;;0.35;91.73;102312.86;1832495;78;20894;-36
2021/01/03 09:42:36;;;;;;;29.50;17.95;;;;;;;0.36;91.71;102305.31;1832420;78;21266;-36
2021/01/03 09:45:42;;;;;;;30.57;18.07;;;;;;;0.40;91.75;102305.09;1832503;78;21422;-37
2021/01/03 09:48:29;;;;;;;27.50;16.40;;;;;;;0.46;91.71;102307.06;1832383;78;21030;-35
2021/01/03 09:51:25;;;;;;;25.08;16.32;;;;;;;0.50;91.42;102302.22;1809562;78;20958;-37
2021/01/03 09:54:08;;;;;;;27.60;15.83;;;;;;;0.53;91.45;102298.97;1816781;78;21452;-36
2021/01/03 09:56:39;;;;;;;25.92;15.80;;;;;;;0.53;91.12;102296.00;1832329;78;21241;-36
2021/01/03 09:59:14;;;;;;;29.07;16.45;;;;;;;0.54;91.17;102295.20;1832278;78;20922;-36
2021/01/03 10:01:45;;;;;;;23.05;15.70;;;;;;;0.57;91.05;102288.13;1832541;78;24414;-35
2021/01/03 10:04:23;;;;;;;24.92;16.73;;;;;;;0.60;90.91;102282.30;1832401;78;20968;-37
2021/01/03 10:07:08;;;;;;;20.00;14.35;;;;;;;0.59;90.80;102276.34;1832404;78;21013;-35
2021/01/03 10:09:36;;;;;;;23.27;15.08;;;;;;;0.55;90.57;102271.88;1829199;78;21204;-36
2021/01/03 10:12:32;;;;;;;23.92;14.65;;;;;;;0.55;90.41;102270.61;1832438;78;20992;-35
2021/01/03 10:15:24;;;;;;;20.77;14.75;;;;;;;0.52;90.38;102264.94;1832343;78;20982;-36
2021/01/03 10:18:01;;;;;;;20.80;13.68;;;;;;;0.52;90.45;102253.89;1832325;78;20954;-36
2021/01/03 10:20:46;;;;;;;19.75;13.53;;;;;;;0.54;90.19;102254.84;1832536;78;21527;-35
2021/01/03 10:23:33;;;;;;;20.43;13.60;;;;;;;0.56;90.09;102257.92;1832414;78;21348;-36
2021/01/03 10:26:06;;;;;;;23.52;15.43;;;;;;;0.57;89.96;102253.72;1832351;78;21520;-37
2021/01/03 10:28:34;;;;;;;18.67;12.55;;;;;;;0.55;89.92;102255.31;1828336;78;21021;-35
2021/01/03 10:31:02;;;;;;;16.15;12.95;;;;;;;0.56;90.03;102243.91;1829702;78;20970;-35
2021/01/03 10:33:30;;;;;;;18.30;12.73;;;;;;;0.61;89.78;102244.53;1829810;78;21013;-35
2021/01/03 10:35:59;;;;;;;19.55;12.20;;;;;;;0.60;89.56;102254.25;1829803;78;22795;-36
2021/01/03 10:38:27;;;;;;;21.48;12.68;;;;;;;0.60;89.38;102253.87;1829744;78;20915;-35
2021/01/03 10:40:57;;;;;;;20.43;11.63;;;;;;;0.61;89.30;102263.66;1826150;78;20895;-37
2021/01/03 10:43:25;;;;;;;18.95;10.98;;;;;;;0.66;89.23;102259.69;1829754;78;20926;-36
2021/01/03 10:45:53;;;;;;;17.42;11.43;;;;;;;0.70;89.06;102256.50;1829765;78;21021;-35
2021/01/03 10:48:22;;;;;;;20.68;12.80;;;;;;;0.74;89.00;102250.75;1829768;78;21198;-35
2021/01/03 10:50:50;;;;;;;20.52;12.88;;;;;;;0.78;88.87;102251.38;1829713;78;20997;-36
2021/01/03 10:53:19;;;;;;;22.07;12.60;;;;;;;0.79;88.67;102244.20;1829784;78;20966;-36
2021/01/03 10:55:47;;;;;;;19.30;12.20;;;;;;;0.83;88.74;102245.25;1829734;78;21136;-36
2021/01/03 10:58:15;;;;;;;20.70;12.20;;;;;;;0.88;88.56;102244.18;1829831;78;20890;-37
2021/01/03 11:00:44;;;;;;;19.80;11.57;;;;;;;0.93;88.41;102236.39;1829614;78;22538;-37
2021/01/03 11:03:12;;;;;;;17.75;11.83;;;;;;;0.92;88.36;102239.73;1829690;78;20990;-36
2021/01/03 11:05:40;;;;;;;18.57;11.75;;;;;;;0.95;88.31;102242.44;1829705;78;21033;-36
2021/01/03 11:08:08;;;;;;;17.90;11.45;;;;;;;0.96;88.06;102245.05;1829832;78;20918;-38
2021/01/03 11:10:37;;;;;;;17.00;10.08;;;;;;;1.01;87.97;102245.28;1829775;78;20898;-43
2021/01/03 11:13:06;;;;;;;17.20;12.07;;;;;;;1.02;87.81;102242.34;1829823;78;21205;-37
2021/01/03 11:15:35;;;;;;;17.73;11.95;;;;;;;1.03;87.91;102243.68;1829867;78;21064;-34
2021/01/03 11:18:04;;;;;;;21.52;13.38;;;;;;;1.07;87.84;102246.00;1829990;78;20966;-34
2021/01/03 11:20:35;;;;;;;22.40;13.35;;;;;;;1.11;87.76;102253.00;1829807;78;20958;-35
2021/01/03 11:23:04;;;;;;;19.05;11.97;;;;;;;1.14;87.75;102249.31;1777511;78;21017;-37
2021/01/03 11:25:33;;;;;;;21.87;13.50;;;;;;;1.18;87.55;102245.25;1829933;78;21188;-37
2021/01/03 11:28:01;;;;;;;20.80;13.65;;;;;;;1.18;87.44;102238.45;1828398;78;21017;-36
2021/01/03 11:30:30;;;;;;;17.32;12.20;;;;;;;1.18;87.35;102241.01;1817438;79;20907;-37
2021/01/03 11:32:58;;;;;;;18.60;11.55;;;;;;;1.22;87.20;102244.59;1817439;79;21034;-33
2021/01/03 11:35:27;;;;;;;16.17;10.65;;;;;;;1.26;86.86;102240.11;1817562;79;20899;-34
2021/01/03 11:37:57;;;;;;;20.02;12.05;;;;;;;1.28;86.70;102229.19;1817284;79;21194;-35
2021/01/03 11:40:25;;;;;;;22.27;12.73;;;;;;;1.32;86.67;102226.36;1817455;79;20988;-35
2021/01/03 11:42:54;;;;;;;19.87;13.38;;;;;;;1.36;86.62;102232.09;1817510;79;20978;-35
2021/01/03 11:45:22;;;;;;;18.45;12.58;;;;;;;1.42;86.58;102222.19;1817386;79;20955;-35
2021/01/03 11:47:52;;;;;;;15.00;10.80;;;;;;;1.47;86.41;102222.80;1817050;79;21004;-35
2021/01/03 11:50:22;;;;;;;19.57;10.70;;;;;;;1.48;85.75;102219.03;1817487;78;21199;-37
2021/01/03 11:52:50;;;;;;;16.07;10.93;;;;;;;1.45;85.65;102220.59;1817357;78;21017;-35
2021/01/03 11:55:19;;;;;;;16.10;10.85;;;;;;;1.37;85.45;102217.25;1817437;78;20916;-34
2021/01/03 11:57:48;;;;;;;13.43;9.83;;;;;;;1.32;85.43;102224.23;1817398;79;20963;-34